Time;durP1;ratioP1;P1;durP2;ratioP2;P2;SDS_P1;SDS_P2;PMS_P1;PMS_P2;Temp;Humidity;BMP_temperature;BMP_pressure;BME280_temperature;BME280_humidity;BME280_pressure;Samples;Min_cycle;Max_cycle;Signal;HPM_P1;HPM_P2
2023/04/11 00:01:59;;;;;;;2.50;2.30;;;16.10;82.90;;;;;;5062186;28;20259;-72
2023/04/11 00:04:25;;;;;;;2.67;2.10;;;15.90;83.50;;;;;;5045633;28;20262;-70
2023/04/11 00:06:51;;;;;;;2.90;1.90;;;15.80;83.80;;;;;;5061877;28;20472;-69
2023/04/11 00:09:17;;;;;;;2.20;1.93;;;15.80;85.20;;;;;;5044823;28;20417;-73
2023/04/11 00:11:42;;;;;;;2.20;2.00;;;15.90;84.20;;;;;;5060986;28;20557;-72
2023/04/11 00:14:08;;;;;;;3.73;1.90;;;15.80;84.50;;;;;;5045335;28;20665;-71
2023/04/11 00:16:34;;;;;;;3.37;2.10;;;15.90;85.90;;;;;;5045306;28;20182;-72
2023/04/11 00:19:00;;;;;;;2.73;1.77;;;15.80;85.50;;;;;;5045537;28;20683;-70
2023/04/11 00:21:26;;;;;;;2.50;1.83;;;15.80;85.30;;;;;;5061922;28;20442;-68
2023/04/11 00:23:52;;;;;;;3.90;1.70;;;15.80;85.30;;;;;;5044688;28;20959;-68
2023/04/11 00:26:20;;;;;;;4.33;1.90;;;15.80;86.30;;;;;;5062217;28;20200;-69
2023/04/11 00:28:46;;;;;;;2.73;1.93;;;15.70;86.20;;;;;;5061953;28;20634;-72
2023/04/11 00:31:12;;;;;;;2.20;1.87;;;15.70;87.30;;;;;;5061848;28;20437;-68
2023/04/11 00:33:37;;;;;;;2.10;1.90;;;15.50;87.90;;;;;;5045380;28;20422;-70
2023/04/11 00:36:03;;;;;;;2.57;2.00;;;15.60;88.90;;;;;;5045332;28;20191;-68
2023/04/11 00:38:29;;;;;;;5.23;2.27;;;15.80;89.00;;;;;;5061740;28;20182;-68
2023/04/11 00:40:54;;;;;;;2.60;1.60;;;15.70;87.60;;;;;;5062962;28;20184;-69
2023/04/11 00:43:20;;;;;;;2.03;1.83;;;15.70;88.00;;;;;;5045004;28;20184;-68
2023/04/11 00:45:46;;;;;;;3.20;1.97;;;15.70;89.20;;;;;;5045395;28;20598;-69
2023/04/11 00:48:12;;;;;;;7.60;1.90;;;15.80;88.30;;;;;;5045174;28;20201;-70
2023/04/11 00:50:40;;;;;;;2.20;1.87;;;15.80;89.40;;;;;;5061734;28;21236;-71
2023/04/11 00:53:07;;;;;;;5.47;2.33;;;15.80;89.50;;;;;;5061248;28;20301;-70
2023/04/11 00:55:33;;;;;;;2.80;1.77;;;15.70;89.10;;;;;;5044739;28;20814;-69
2023/04/11 00:57:59;;;;;;;2.20;1.57;;;15.80;88.90;;;;;;5061277;28;20451;-71
2023/04/11 01:00:25;;;;;;;2.10;1.90;;;15.90;89.20;;;;;;5061783;28;20185;-70
2023/04/11 01:02:51;;;;;;;2.23;1.73;;;15.90;89.10;;;;;;5061863;28;20446;-70
2023/04/11 01:05:17;;;;;;;2.90;1.97;;;15.90;90.20;;;;;;5061555;28;20423;-72
2023/04/11 01:07:47;;;;;;;2.07;1.90;;;15.70;90.10;;;;;;5044566;28;20212;-69
2023/04/11 01:10:14;;;;;;;2.30;2.00;;;15.90;89.80;;;;;;5061578;28;20427;-68
2023/04/11 01:12:41;;;;;;;2.33;1.60;;;15.80;90.20;;;;;;5060985;28;20836;-70
2023/04/11 01:15:07;;;;;;;2.30;1.70;;;15.70;90.60;;;;;;5061588;28;20780;-70
2023/04/11 01:17:32;;;;;;;2.40;1.67;;;15.70;90.90;;;;;;5045508;28;20427;-68
2023/04/11 01:19:59;;;;;;;3.30;2.10;;;15.60;91.20;;;;;;5044732;28;20447;-70
2023/04/11 01:22:26;;;;;;;2.93;1.90;;;15.70;91.80;;;;;;5062794;28;20200;-70
2023/04/11 01:24:51;;;;;;;3.33;1.77;;;15.60;91.50;;;;;;5064802;28;20411;-70
2023/04/11 01:27:18;;;;;;;2.03;1.73;;;15.80;91.70;;;;;;5048235;28;20464;-68
2023/04/11 01:29:43;;;;;;;2.93;1.80;;;15.80;91.70;;;;;;5064933;28;20217;-69
2023/04/11 01:32:09;;;;;;;2.07;1.40;;;15.70;91.60;;;;;;5048189;28;20894;-67
2023/04/11 01:34:38;;;;;;;3.10;2.27;;;15.60;92.00;;;;;;5048364;28;20548;-68
2023/04/11 01:37:04;;;;;;;4.53;2.00;;;15.60;92.80;;;;;;5048050;28;20181;-69
2023/04/11 01:39:30;;;;;;;2.80;2.07;;;15.60;93.60;;;;;;5064486;28;20960;-67
2023/04/11 01:41:57;;;;;;;3.10;2.03;;;15.50;95.70;;;;;;5047878;28;20439;-67
2023/04/11 01:44:24;;;;;;;2.20;2.00;;;15.40;96.90;;;;;;5046715;28;20677;-71
2023/04/11 01:46:50;;;;;;;2.97;2.00;;;15.20;98.20;;;;;;5064559;28;20509;-68
2023/04/11 01:49:17;;;;;;;3.20;2.17;;;15.30;99.80;;;;;;5048056;28;20411;-68
2023/04/11 01:51:43;;;;;;;4.07;2.33;;;15.40;99.90;;;;;;5047498;28;20467;-68
2023/04/11 01:54:09;;;;;;;4.37;2.40;;;15.30;99.90;;;;;;5047558;28;20471;-70
2023/04/11 01:56:35;;;;;;;2.83;2.00;;;15.30;99.90;;;;;;5047658;28;20270;-68
2023/04/11 01:59:00;;;;;;;2.87;1.90;;;15.30;99.90;;;;;;5064424;28;20423;-69
2023/04/11 02:01:26;;;;;;;3.20;1.93;;;15.10;99.90;;;;;;5048226;28;20208;-68
2023/04/11 02:03:52;;;;;;;2.60;2.07;;;15.10;99.90;;;;;;5049068;28;20213;-72
2023/04/11 02:06:17;;;;;;;1.70;1.60;;;14.80;99.90;;;;;;5048832;28;20207;-70
2023/04/11 02:08:43;;;;;;;2.37;2.17;;;14.70;99.90;;;;;;5047586;28;20177;-68
2023/04/11 02:11:09;;;;;;;5.37;1.73;;;14.60;99.90;;;;;;5064441;28;20204;-70
2023/04/11 02:13:35;;;;;;;2.27;2.07;;;14.40;99.90;;;;;;5046747;28;20551;-68
2023/04/11 02:16:09;;;;;;;2.40;2.20;;;14.00;99.90;;;;;;5064191;28;20413;-68
2023/04/11 02:18:35;;;;;;;1.87;1.77;;;14.00;99.90;;;;;;5047100;28;20349;-73
2023/04/11 02:21:01;;;;;;;2.37;1.70;;;13.90;99.90;;;;;;5063868;28;20931;-68
2023/04/11 02:23:26;;;;;;;1.07;0.90;;;13.90;99.90;;;;;;5063548;28;20472;-69
2023/04/11 02:25:52;;;;;;;1.60;1.23;;;13.40;99.90;;;;;;5047287;28;20417;-69
2023/04/11 02:28:18;;;;;;;1.67;1.23;;;13.00;99.90;;;;;;5063501;28;20183;-69
2023/04/11 02:30:43;;;;;;;1.40;1.07;;;12.70;99.90;;;;;;5063964;28;20178;-70
2023/04/11 02:33:09;;;;;;;2.20;1.30;;;12.50;99.90;;;;;;5063233;28;20195;-68
2023/04/11 02:35:35;;;;;;;2.30;1.20;;;12.30;99.90;;;;;;5063916;28;20179;-70
2023/04/11 02:38:00;;;;;;;1.73;0.93;;;12.40;99.90;;;;;;5047611;28;20193;-72
2023/04/11 02:40:26;;;;;;;1.70;1.20;;;12.30;99.90;;;;;;5047506;28;20231;-68
2023/04/11 02:42:51;;;;;;;1.10;1.00;;;12.40;99.90;;;;;;5063224;28;20207;-68
2023/04/11 02:45:17;;;;;;;1.20;0.80;;;12.40;99.90;;;;;;5063406;28;20481;-67
2023/04/11 02:47:43;;;;;;;1.40;1.00;;;12.20;99.90;;;;;;5063906;28;20203;-70
2023/04/11 02:50:09;;;;;;;1.67;0.97;;;12.10;99.90;;;;;;5046806;28;20180;-72
2023/04/11 02:52:36;;;;;;;1.57;0.90;;;11.90;99.90;;;;;;5046547;28;20222;-71
2023/04/11 02:55:02;;;;;;;3.13;0.93;;;12.10;99.90;;;;;;5046366;28;20468;-70
2023/04/11 02:57:28;;;;;;;1.97;1.07;;;12.10;99.90;;;;;;5063055;28;20500;-70
2023/04/11 02:59:53;;;;;;;1.87;1.20;;;12.00;99.90;;;;;;5063250;28;20424;-70
2023/04/11 03:02:22;;;;;;;3.70;0.70;;;12.10;99.90;;;;;;5064789;28;20449;-69
2023/04/11 03:04:47;;;;;;;3.43;1.10;;;12.20;99.90;;;;;;5046135;28;20203;-69
2023/04/11 03:07:13;;;;;;;1.53;1.00;;;12.20;99.90;;;;;;5062759;28;20447;-69
2023/04/11 03:09:39;;;;;;;1.90;1.03;;;12.10;99.90;;;;;;5062903;28;20217;-69
2023/04/11 03:12:04;;;;;;;2.40;1.00;;;12.10;99.90;;;;;;5046202;28;20209;-72
2023/04/11 03:14:30;;;;;;;1.43;0.90;;;12.10;99.90;;;;;;5046000;28;20190;-69
2023/04/11 03:16:56;;;;;;;2.70;1.57;;;12.10;99.90;;;;;;5046269;28;20182;-70
2023/04/11 03:19:21;;;;;;;3.17;1.37;;;12.10;99.90;;;;;;5063380;28;20184;-69
2023/04/11 03:21:47;;;;;;;1.83;0.80;;;12.10;99.90;;;;;;5046410;28;20199;-71
2023/04/11 03:24:12;;;;;;;1.30;1.07;;;12.10;99.90;;;;;;5045595;28;20258;-69
2023/04/11 03:26:38;;;;;;;1.23;1.00;;;11.90;99.90;;;;;;5062684;28;20205;-70
2023/04/11 03:29:04;;;;;;;2.47;1.13;;;11.80;99.90;;;;;;5045674;28;20341;-68
2023/04/11 03:31:29;;;;;;;2.03;0.83;;;11.70;99.90;;;;;;5046046;28;20200;-70
2023/04/11 03:33:55;;;;;;;2.40;1.40;;;11.60;99.90;;;;;;5062305;28;20182;-69
2023/04/11 03:36:25;;;;;;;2.03;1.07;;;11.30;99.90;;;;;;5062695;28;20276;-70
2023/04/11 03:38:51;;;;;;;1.53;1.30;;;11.40;99.90;;;;;;5062388;28;20414;-71
2023/04/11 03:41:18;;;;;;;2.93;1.37;;;11.50;99.90;;;;;;5045831;28;20434;-70
2023/04/11 03:43:44;;;;;;;1.60;1.27;;;11.60;99.90;;;;;;5062253;28;20182;-68
2023/04/11 03:46:10;;;;;;;2.07;1.10;;;11.70;99.90;;;;;;5045300;28;20945;-70
2023/04/11 03:48:35;;;;;;;2.80;0.97;;;11.70;99.90;;;;;;5045610;28;20472;-69
2023/04/11 03:51:01;;;;;;;2.33;1.83;;;11.60;99.90;;;;;;5064206;28;20549;-68
2023/04/11 03:53:27;;;;;;;1.90;1.00;;;11.80;99.90;;;;;;5033663;28;20573;-67
2023/04/11 03:55:53;;;;;;;1.50;1.00;;;11.70;99.90;;;;;;5062442;28;20184;-69
2023/04/11 03:58:20;;;;;;;1.63;0.90;;;11.80;99.90;;;;;;5062027;28;20638;-69
2023/04/11 04:00:46;;;;;;;3.13;1.00;;;11.70;99.90;;;;;;5045461;28;20432;-66
2023/04/11 04:03:12;;;;;;;3.40;1.40;;;11.70;99.90;;;;;;5062307;28;20435;-69
2023/04/11 04:05:40;;;;;;;1.23;1.10;;;11.90;99.90;;;;;;5045272;28;20434;-70
2023/04/11 04:08:06;;;;;;;2.00;1.53;;;11.90;99.90;;;;;;5045207;28;20455;-68
2023/04/11 04:10:32;;;;;;;2.43;1.20;;;11.80;99.90;;;;;;5045623;28;20478;-69
2023/04/11 04:12:58;;;;;;;3.70;1.40;;;11.80;99.90;;;;;;5044983;28;20485;-70
2023/04/11 04:15:24;;;;;;;2.30;1.20;;;11.70;99.90;;;;;;5045633;28;20736;-69
2023/04/11 04:17:50;;;;;;;4.20;1.43;;;11.70;99.90;;;;;;5045049;28;20171;-69
2023/04/11 04:20:16;;;;;;;3.80;1.17;;;11.70;99.90;;;;;;5062088;28;20423;-70
2023/04/11 04:22:41;;;;;;;2.50;1.20;;;11.70;99.90;;;;;;5062072;28;20493;-69
2023/04/11 04:25:11;;;;;;;5.37;1.43;;;11.80;99.90;;;;;;5063167;28;20661;-70
2023/04/11 04:27:42;;;;;;;5.00;2.63;;;11.60;99.90;;;;;;5044887;28;20203;-69
2023/04/11 04:30:09;;;;;;;2.97;1.10;;;11.50;99.90;;;;;;5061928;28;20414;-69
2023/04/11 04:32:35;;;;;;;1.80;1.10;;;11.50;99.90;;;;;;5061853;28;20980;-69
2023/04/11 04:35:01;;;;;;;1.67;1.20;;;11.40;99.90;;;;;;5061743;28;20427;-68
2023/04/11 04:37:26;;;;;;;1.83;1.53;;;11.10;99.90;;;;;;5045045;28;20179;-71
2023/04/11 04:39:54;;;;;;;1.60;0.90;;;11.10;99.90;;;;;;5044578;28;20677;-68
2023/04/11 04:42:24;;;;;;;3.80;1.23;;;11.10;99.90;;;;;;5061761;28;20209;-69
2023/04/11 04:44:51;;;;;;;1.53;1.23;;;11.10;99.90;;;;;;5061336;28;20502;-67
2023/04/11 04:47:18;;;;;;;1.83;1.20;;;11.10;99.90;;;;;;5061573;28;20452;-69
2023/04/11 04:49:45;;;;;;;1.57;0.97;;;11.00;99.90;;;;;;5044871;28;20937;-70
2023/04/11 04:52:12;;;;;;;3.47;1.00;;;11.10;99.90;;;;;;5061613;28;20964;-68
2023/04/11 04:54:38;;;;;;;2.20;0.90;;;11.00;99.90;;;;;;5061810;28;20796;-70
2023/04/11 04:57:04;;;;;;;2.27;1.00;;;10.90;99.90;;;;;;5048098;28;20416;-70
2023/04/11 04:59:30;;;;;;;1.87;0.83;;;10.90;99.90;;;;;;5065265;28;20924;-69
2023/04/11 05:01:56;;;;;;;1.03;0.80;;;10.80;99.90;;;;;;5064976;28;20446;-70
2023/04/11 05:04:22;;;;;;;0.90;0.67;;;10.80;99.90;;;;;;5048455;28;20193;-67
2023/04/11 05:06:48;;;;;;;2.47;1.10;;;10.80;99.90;;;;;;5048091;28;20272;-70
2023/04/11 05:09:13;;;;;;;2.43;1.00;;;10.70;99.90;;;;;;5047804;28;20560;-66
2023/04/11 05:11:39;;;;;;;1.97;1.00;;;10.70;99.90;;;;;;5063722;28;20198;-70
2023/04/11 05:14:04;;;;;;;1.53;0.97;;;10.70;99.90;;;;;;5048467;28;20432;-68
2023/04/11 05:16:30;;;;;;;1.70;1.10;;;10.50;99.90;;;;;;5048242;28;20279;-70
2023/04/11 05:18:56;;;;;;;1.90;1.10;;;10.30;99.90;;;;;;5064647;28;20267;-69
2023/04/11 05:21:21;;;;;;;4.13;0.80;;;10.10;99.90;;;;;;5048473;28;20405;-70
2023/04/11 05:23:47;;;;;;;2.13;1.03;;;9.80;99.90;;;;;;5047807;28;20179;-71
2023/04/11 05:26:13;;;;;;;3.43;1.27;;;9.60;99.90;;;;;;5064756;28;20187;-70
2023/04/11 05:28:38;;;;;;;4.53;1.50;;;9.60;99.90;;;;;;5064598;28;20839;-70
2023/04/11 05:31:05;;;;;;;2.17;1.07;;;9.60;99.90;;;;;;5064805;28;20791;-69
2023/04/11 05:33:30;;;;;;;3.03;1.37;;;9.60;99.90;;;;;;5064621;28;20945;-69
2023/04/11 05:35:56;;;;;;;2.47;1.20;;;9.60;99.90;;;;;;5048256;28;20932;-67
2023/04/11 05:38:21;;;;;;;2.07;1.10;;;9.60;99.90;;;;;;5064469;28;20191;-68
2023/04/11 05:40:47;;;;;;;2.13;1.17;;;9.70;99.90;;;;;;5048165;28;20216;-69
2023/04/11 05:43:13;;;;;;;1.60;1.10;;;9.80;99.90;;;;;;5064666;28;20726;-69
2023/04/11 05:45:46;;;;;;;2.50;0.90;;;9.80;99.90;;;;;;5064475;28;20205;-67
2023/04/11 05:48:17;;;;;;;3.90;1.30;;;9.70;99.90;;;;;;5048011;28;20686;-68
2023/04/11 05:50:43;;;;;;;1.80;1.03;;;9.70;99.90;;;;;;5049756;28;20419;-68
2023/04/11 05:53:08;;;;;;;1.10;0.70;;;9.80;99.90;;;;;;5065750;28;20653;-68
2023/04/11 05:55:35;;;;;;;1.90;0.90;;;10.00;99.90;;;;;;5066068;28;20229;-68
2023/04/11 05:58:01;;;;;;;2.60;1.10;;;10.00;99.90;;;;;;5054442;28;20181;-70
2023/04/11 06:00:29;;;;;;;3.50;1.30;;;10.10;99.90;;;;;;5047427;28;20524;-70
2023/04/11 06:02:56;;;;;;;1.10;1.00;;;10.00;99.90;;;;;;5064469;28;20208;-70
2023/04/11 06:05:22;;;;;;;2.50;1.30;;;10.20;99.90;;;;;;5047617;28;20779;-69
2023/04/11 06:07:48;;;;;;;6.10;3.03;;;10.40;99.90;;;;;;5063405;28;20487;-67
2023/04/11 06:10:14;;;;;;;3.87;2.47;;;10.30;99.90;;;;;;5047187;28;20457;-68
2023/04/11 06:12:39;;;;;;;2.63;1.23;;;10.20;99.90;;;;;;5047138;28;20465;-66
2023/04/11 06:15:07;;;;;;;3.53;1.20;;;10.10;99.90;;;;;;5063885;28;20190;-69
2023/04/11 06:17:33;;;;;;;2.80;1.30;;;10.20;99.90;;;;;;5063699;28;20182;-69
2023/04/11 06:20:00;;;;;;;1.13;1.00;;;10.30;99.90;;;;;;5047044;28;20431;-68
2023/04/11 06:22:25;;;;;;;2.20;1.20;;;10.50;99.90;;;;;;5063511;28;20318;-68
2023/04/11 06:24:51;;;;;;;2.83;0.90;;;10.60;99.90;;;;;;5046528;28;20524;-69
2023/04/11 06:27:17;;;;;;;4.27;1.10;;;10.50;99.90;;;;;;5063234;28;20247;-69
2023/04/11 06:29:42;;;;;;;4.97;1.00;;;10.70;99.90;;;;;;5063359;28;20414;-67
2023/04/11 06:32:10;;;;;;;3.60;1.30;;;10.60;99.90;;;;;;5063557;28;20196;-69
2023/04/11 06:34:37;;;;;;;4.10;1.20;;;10.60;99.90;;;;;;5046572;28;20266;-69
2023/04/11 06:37:02;;;;;;;4.00;1.80;;;10.70;99.90;;;;;;5048135;28;21070;-69
2023/04/11 06:39:29;;;;;;;2.53;1.20;;;10.90;99.90;;;;;;5065482;28;21150;-68
2023/04/11 06:41:55;;;;;;;1.60;0.80;;;10.80;99.90;;;;;;5064367;28;20201;-68
2023/04/11 06:44:21;;;;;;;2.40;1.00;;;11.00;99.90;;;;;;5064459;28;20418;-67
2023/04/11 06:46:46;;;;;;;3.87;1.70;;;10.90;99.90;;;;;;5065233;28;20447;-70
2023/04/11 06:49:12;;;;;;;2.50;1.00;;;10.80;99.90;;;;;;5064166;28;20190;-69
2023/04/11 06:51:37;;;;;;;4.00;1.00;;;10.70;99.90;;;;;;5047232;28;20254;-69
2023/04/11 06:54:05;;;;;;;2.23;1.40;;;10.70;99.90;;;;;;5064045;28;20205;-67
2023/04/11 06:56:31;;;;;;;2.37;1.40;;;10.80;99.90;;;;;;5047647;28;20565;-69
2023/04/11 06:58:57;;;;;;;1.67;0.90;;;10.80;99.90;;;;;;5063898;28;20760;-67
2023/04/11 07:01:29;;;;;;;2.17;1.00;;;10.90;99.90;;;;;;5063874;28;20440;-68
2023/04/11 07:03:55;;;;;;;3.97;1.83;;;11.10;99.90;;;;;;5063555;28;20268;-66
2023/04/11 07:06:21;;;;;;;1.20;0.97;;;11.20;99.90;;;;;;5045724;28;20429;-68
2023/04/11 07:08:47;;;;;;;2.80;1.33;;;11.20;99.90;;;;;;5045542;28;20758;-67
2023/04/11 07:11:13;;;;;;;1.27;0.80;;;11.30;99.90;;;;;;5062397;28;20433;-69
2023/04/11 07:13:39;;;;;;;2.33;1.43;;;11.10;99.90;;;;;;5062474;28;20442;-69
2023/04/11 07:16:05;;;;;;;3.80;1.40;;;11.30;99.90;;;;;;5064168;28;20185;-70
2023/04/11 07:18:30;;;;;;;3.80;1.60;;;11.40;99.90;;;;;;5045849;28;20210;-70
2023/04/11 07:20:56;;;;;;;2.10;1.33;;;11.60;99.90;;;;;;5061477;28;20456;-69
2023/04/11 07:23:22;;;;;;;4.53;1.17;;;11.70;99.90;;;;;;5062382;28;20314;-68
2023/04/11 07:25:48;;;;;;;2.10;1.10;;;11.90;99.90;;;;;;5062223;28;20210;-66
2023/04/11 07:28:14;;;;;;;6.20;1.70;;;11.80;99.90;;;;;;5062232;28;20453;-67
2023/04/11 07:30:40;;;;;;;2.57;1.60;;;11.80;99.90;;;;;;5062374;28;20524;-67
2023/04/11 07:33:05;;;;;;;3.57;1.70;;;11.60;99.90;;;;;;5063740;28;20543;-68
2023/04/11 07:35:33;;;;;;;5.10;1.63;;;11.70;99.90;;;;;;5062344;28;20674;-69
2023/04/11 07:38:00;;;;;;;2.13;1.20;;;11.70;99.90;;;;;;5045535;28;20694;-68
2023/04/11 07:40:26;;;;;;;2.20;0.90;;;11.60;99.90;;;;;;5062045;28;20838;-70
2023/04/11 07:42:52;;;;;;;2.53;1.37;;;11.50;99.90;;;;;;5043968;28;20974;-68
2023/04/11 07:45:18;;;;;;;4.53;2.10;;;11.40;99.90;;;;;;5062122;28;20421;-69
2023/04/11 07:47:44;;;;;;;4.17;1.80;;;11.60;99.90;;;;;;5061960;28;20449;-69
2023/04/11 07:50:10;;;;;;;4.03;1.50;;;11.50;99.90;;;;;;5045435;28;20416;-68
2023/04/11 07:52:36;;;;;;;9.90;2.33;;;11.40;99.90;;;;;;5045456;28;20214;-70
2023/04/11 07:55:03;;;;;;;3.10;1.43;;;11.40;99.90;;;;;;5062044;28;20981;-67
2023/04/11 07:57:28;;;;;;;4.23;2.03;;;11.50;99.90;;;;;;5063029;28;20558;-68
2023/04/11 07:59:55;;;;;;;4.10;1.70;;;11.60;99.90;;;;;;5045598;28;20419;-69
2023/04/11 08:02:22;;;;;;;4.27;1.90;;;11.70;99.90;;;;;;5046352;28;20205;-69
2023/04/11 08:04:47;;;;;;;6.03;1.77;;;11.70;99.90;;;;;;5063642;28;20423;-68
2023/04/11 08:07:14;;;;;;;5.60;2.20;;;11.70;99.90;;;;;;5062186;28;21171;-68
2023/04/11 08:09:41;;;;;;;5.90;1.80;;;11.90;99.90;;;;;;5063089;28;20167;-70
2023/04/11 08:12:07;;;;;;;5.67;2.00;;;11.80;99.90;;;;;;5045252;28;20896;-70
2023/04/11 08:14:33;;;;;;;6.83;2.07;;;11.80;99.90;;;;;;5061955;28;21292;-68
2023/04/11 08:16:59;;;;;;;3.10;1.63;;;11.60;99.90;;;;;;5062043;28;20426;-70
2023/04/11 08:19:25;;;;;;;5.60;1.57;;;11.60;99.90;;;;;;5044903;28;20609;-69
2023/04/11 08:21:51;;;;;;;3.93;1.73;;;11.50;99.90;;;;;;5061575;28;21048;-67
2023/04/11 08:24:17;;;;;;;9.00;2.13;;;11.70;99.90;;;;;;5044772;28;20183;-69
2023/04/11 08:26:43;;;;;;;4.13;1.77;;;11.90;99.90;;;;;;5061881;28;20466;-69
2023/04/11 08:29:10;;;;;;;4.27;1.73;;;11.90;99.90;;;;;;5045179;28;20192;-69
2023/04/11 08:31:36;;;;;;;5.57;1.70;;;11.70;99.90;;;;;;5047075;28;20199;-68
2023/04/11 08:34:02;;;;;;;10.03;2.00;;;11.70;99.90;;;;;;5066041;28;20948;-69
2023/04/11 08:36:30;;;;;;;9.53;2.17;;;12.20;99.90;;;;;;5065326;28;20409;-68
2023/04/11 08:38:55;;;;;;;3.30;1.50;;;12.10;99.90;;;;;;5065414;28;20967;-68
2023/04/11 08:41:22;;;;;;;3.90;1.87;;;12.20;99.90;;;;;;5049116;28;20431;-69
2023/04/11 08:43:48;;;;;;;8.70;1.90;;;12.20;99.90;;;;;;5065488;28;20490;-68
2023/04/11 08:46:13;;;;;;;5.40;1.73;;;12.10;99.90;;;;;;5049007;28;20513;-70
2023/04/11 08:48:39;;;;;;;6.53;2.33;;;12.20;99.90;;;;;;5048670;28;20175;-71
2023/04/11 08:51:05;;;;;;;5.33;1.90;;;12.30;99.90;;;;;;5065059;28;20187;-69
2023/04/11 08:53:35;;;;;;;5.50;2.00;;;12.60;99.90;;;;;;5065648;28;20827;-68
2023/04/11 08:56:00;;;;;;;7.10;1.80;;;12.90;99.90;;;;;;5048255;28;20419;-70
2023/04/11 08:58:26;;;;;;;7.70;2.40;;;13.00;99.90;;;;;;5048777;28;20765;-70
2023/04/11 09:00:51;;;;;;;15.77;10.20;;;12.80;99.90;;;;;;5066655;28;20185;-68
2023/04/11 09:03:17;;;;;;;11.47;5.07;;;12.60;99.90;;;;;;5066704;28;20182;-69
2023/04/11 09:05:45;;;;;;;4.33;2.10;;;12.50;99.90;;;;;;5047807;28;20224;-69
2023/04/11 09:08:12;;;;;;;5.90;1.70;;;12.60;99.90;;;;;;5048188;28;20712;-69
2023/04/11 09:10:40;;;;;;;3.43;1.93;;;12.90;99.90;;;;;;5048049;28;20425;-69
2023/04/11 09:13:22;;;;;;;6.57;2.47;;;13.20;99.90;;;;;;5064913;28;20440;-70
2023/04/11 09:16:09;;;;;;;6.20;2.80;;;13.30;99.90;;;;;;5064804;28;20461;-67
2023/04/11 09:18:37;;;;;;;4.90;2.70;;;13.10;99.90;;;;;;5065000;28;20419;-69
2023/04/11 09:21:14;;;;;;;8.70;6.07;;;12.90;99.90;;;;;;5064796;28;20422;-68
2023/04/11 09:23:40;;;;;;;15.97;11.07;;;13.00;99.90;;;;;;5066098;28;20409;-68
2023/04/11 09:26:11;;;;;;;7.27;5.63;;;13.10;99.90;;;;;;5064721;28;20450;-70
2023/04/11 09:28:51;;;;;;;5.47;3.63;;;13.20;99.90;;;;;;5048320;28;20454;-68
2023/04/11 09:31:16;;;;;;;9.10;4.97;;;13.10;99.90;;;;;;5048475;28;20724;-68
2023/04/11 09:33:54;;;;;;;20.17;11.93;;;13.20;99.90;;;;;;5065076;28;20502;-69
2023/04/11 09:36:22;;;;;;;7.90;4.60;;;13.30;99.90;;;;;;5048401;28;20295;-70
2023/04/11 09:38:47;;;;;;;7.60;3.40;;;13.30;99.90;;;;;;5048141;28;20908;-68
2023/04/11 09:41:13;;;;;;;6.70;2.77;;;13.30;99.90;;;;;;5064289;28;20574;-70
2023/04/11 09:43:54;;;;;;;7.37;4.73;;;13.10;99.90;;;;;;5063205;28;20188;-69
2023/04/11 09:46:20;;;;;;;6.30;3.93;;;13.30;99.90;;;;;;5047584;28;20416;-69
2023/04/11 09:48:47;;;;;;;6.40;3.27;;;13.40;99.90;;;;;;5047844;28;20413;-70
2023/04/11 09:51:13;;;;;;;7.40;5.60;;;13.40;99.90;;;;;;5048233;28;20467;-68
2023/04/11 09:53:40;;;;;;;3.83;1.60;;;13.20;99.90;;;;;;5047645;28;20429;-69
2023/04/11 09:56:06;;;;;;;6.43;3.97;;;12.90;99.90;;;;;;5064053;28;20433;-69
2023/04/11 09:58:35;;;;;;;6.90;4.20;;;13.10;99.90;;;;;;5064377;28;20799;-70
2023/04/11 10:01:02;;;;;;;14.77;8.50;;;13.00;99.90;;;;;;5064045;28;20880;-70
2023/04/11 10:03:33;;;;;;;18.90;9.43;;;13.30;99.90;;;;;;5047433;28;20423;-68
2023/04/11 10:06:01;;;;;;;21.70;12.50;;;13.30;99.60;;;;;;5064168;28;20951;-69
2023/04/11 10:08:31;;;;;;;16.30;10.90;;;13.20;99.90;;;;;;5064229;28;21190;-70
2023/04/11 10:11:02;;;;;;;8.80;4.77;;;13.40;99.90;;;;;;5063543;28;20409;-69
2023/04/11 10:13:33;;;;;;;18.43;11.77;;;13.60;99.50;;;;;;5047181;28;20414;-69
2023/04/11 10:16:20;;;;;;;41.13;29.10;;;14.00;99.60;;;;;;5063749;28;20883;-68
2023/04/11 10:18:51;;;;;;;14.70;11.63;;;14.10;98.70;;;;;;5064109;28;20427;-68
2023/04/11 10:21:29;;;;;;;3.90;2.13;;;14.20;98.40;;;;;;5063428;28;20705;-70
2023/04/11 10:24:15;;;;;;;5.33;3.27;;;14.40;98.50;;;;;;5046842;28;20415;-71
2023/04/11 10:26:52;;;;;;;5.00;1.83;;;14.40;98.80;;;;;;5063919;28;20483;-71
2023/04/11 10:29:27;;;;;;;6.93;3.80;;;14.30;98.40;;;;;;5046976;28;20772;-70
2023/04/11 10:32:14;;;;;;;8.53;3.63;;;14.10;99.30;;;;;;5063451;28;20448;-70
2023/04/11 10:34:49;;;;;;;4.83;2.27;;;13.90;99.90;;;;;;5063522;28;20420;-70
2023/04/11 10:37:16;;;;;;;7.10;3.30;;;13.60;99.90;;;;;;5063127;28;20469;-69
2023/04/11 10:40:08;;;;;;;6.37;2.27;;;13.20;99.90;;;;;;5063099;28;21054;-70
2023/04/11 10:42:41;;;;;;;6.23;2.10;;;13.20;99.90;;;;;;5063380;28;20486;-69
2023/04/11 10:45:24;;;;;;;4.70;2.43;;;13.20;99.90;;;;;;5063903;28;21008;-70
2023/04/11 10:47:50;;;;;;;9.67;2.73;;;13.10;99.90;;;;;;5063289;28;20864;-67
2023/04/11 10:50:25;;;;;;;5.33;2.13;;;13.10;99.90;;;;;;5063462;28;20457;-68
2023/04/11 10:52:55;;;;;;;2.50;1.73;;;13.50;99.90;;;;;;5046401;28;20223;-69
2023/04/11 10:55:22;;;;;;;4.07;2.13;;;14.10;99.90;;;;;;5045970;28;20448;-69
2023/04/11 10:58:06;;;;;;;4.07;2.13;;;14.30;99.90;;;;;;5046566;28;20473;-70
2023/04/11 11:00:48;;;;;;;4.90;1.70;;;15.30;99.90;;;;;;5045814;28;20954;-70
2023/04/11 11:03:26;;;;;;;4.37;2.17;;;15.50;99.80;;;;;;5063375;28;20426;-69
2023/04/11 11:06:01;;;;;;;3.83;1.67;;;15.50;99.90;;;;;;5062593;28;20599;-71
2023/04/11 11:08:29;;;;;;;4.27;1.90;;;15.40;99.00;;;;;;5044928;28;20502;-66
2023/04/11 11:11:02;;;;;;;5.07;2.20;;;16.00;97.80;;;;;;5045444;28;20464;-68
2023/04/11 11:13:51;;;;;;;4.00;1.67;;;16.20;97.00;;;;;;5046154;28;20428;-68
2023/04/11 11:16:35;;;;;;;4.03;1.37;;;15.80;95.70;;;;;;5046063;28;20418;-67
2023/04/11 11:19:04;;;;;;;3.53;1.77;;;15.20;96.50;;;;;;5046531;28;20481;-67
2023/04/11 11:21:31;;;;;;;4.93;1.50;;;15.30;96.20;;;;;;5046780;28;20457;-69
2023/04/11 11:24:01;;;;;;;3.13;1.77;;;15.40;95.30;;;;;;5062485;28;20946;-66
2023/04/11 11:26:43;;;;;;;2.37;1.83;;;15.40;95.50;;;;;;5045568;28;20427;-66
2023/04/11 11:29:10;;;;;;;2.97;1.70;;;15.20;95.80;;;;;;5062819;28;20426;-67
2023/04/11 11:31:46;;;;;;;4.60;1.93;;;15.30;96.00;;;;;;5046305;28;20454;-66
2023/04/11 11:34:12;;;;;;;4.13;1.30;;;15.40;95.10;;;;;;5062973;28;20613;-68
2023/04/11 11:36:45;;;;;;;4.63;1.50;;;15.70;94.30;;;;;;5045346;28;20477;-69
2023/04/11 11:39:12;;;;;;;6.53;1.90;;;15.90;93.80;;;;;;5045235;28;20428;-68
2023/04/11 11:41:39;;;;;;;3.00;1.20;;;16.10;93.20;;;;;;5045661;28;20444;-69
2023/04/11 11:44:05;;;;;;;4.33;1.70;;;16.60;92.10;;;;;;5045927;28;20434;-69
2023/04/11 11:46:32;;;;;;;2.93;1.30;;;16.30;91.10;;;;;;5062208;28;20962;-69
2023/04/11 11:49:04;;;;;;;2.53;1.63;;;16.50;92.50;;;;;;5045581;28;20427;-67
2023/04/11 11:51:43;;;;;;;3.90;1.63;;;15.80;91.50;;;;;;5045237;28;20967;-69
2023/04/11 11:54:10;;;;;;;4.60;1.90;;;16.40;90.70;;;;;;5044919;28;20408;-67
2023/04/11 11:56:38;;;;;;;5.23;1.53;;;16.70;89.40;;;;;;5045530;28;20770;-69
2023/04/11 11:59:04;;;;;;;2.97;1.80;;;17.10;89.40;;;;;;5045616;28;20783;-68
2023/04/11 12:01:31;;;;;;;3.60;1.73;;;17.90;88.50;;;;;;5045496;28;20811;-70
2023/04/11 12:03:57;;;;;;;3.70;1.77;;;17.20;84.50;;;;;;5061782;28;20428;-68
2023/04/11 12:06:29;;;;;;;3.07;1.50;;;16.50;85.50;;;;;;5044763;28;20472;-69
2023/04/11 12:09:09;;;;;;;2.83;1.03;;;16.80;84.90;;;;;;5044781;28;20193;-68
2023/04/11 12:11:43;;;;;;;4.60;1.70;;;17.00;83.40;;;;;;5045235;28;20450;-67
2023/04/11 12:14:09;;;;;;;5.47;1.60;;;16.10;85.40;;;;;;5044983;28;20822;-71
2023/04/11 12:16:38;;;;;;;3.53;1.63;;;16.00;86.30;;;;;;5045092;28;20432;-67
2023/04/11 12:19:04;;;;;;;4.23;1.70;;;16.80;86.00;;;;;;5061652;28;20181;-68
2023/04/11 12:21:30;;;;;;;3.17;1.73;;;16.30;83.70;;;;;;5045029;28;20440;-69
2023/04/11 12:23:56;;;;;;;3.77;1.67;;;15.90;83.20;;;;;;5044564;28;20802;-69
2023/04/11 12:26:23;;;;;;;5.30;2.03;;;15.60;83.10;;;;;;5061721;28;20434;-68
2023/04/11 12:28:49;;;;;;;3.20;1.50;;;15.30;84.80;;;;;;5044843;28;20245;-68
2023/04/11 12:31:16;;;;;;;5.00;1.90;;;14.80;86.90;;;;;;5062041;28;20443;-69
2023/04/11 12:33:42;;;;;;;4.10;1.70;;;14.60;86.80;;;;;;5045421;28;20938;-67
2023/04/11 12:36:08;;;;;;;7.60;2.07;;;14.80;87.70;;;;;;5045042;28;20518;-68
2023/04/11 12:38:34;;;;;;;3.40;1.77;;;15.20;87.20;;;;;;5044767;28;20425;-70
2023/04/11 12:41:00;;;;;;;5.73;1.90;;;15.30;88.00;;;;;;5044927;28;21336;-68
2023/04/11 12:43:26;;;;;;;6.40;2.87;;;15.50;88.80;;;;;;5063878;28;20696;-69
2023/04/11 12:45:52;;;;;;;3.90;1.63;;;15.90;87.30;;;;;;5045137;28;20424;-68
2023/04/11 12:48:17;;;;;;;2.10;1.50;;;15.90;83.60;;;;;;5028604;28;20299;-70